sensor_id;sensor_type;location;lat;lon;timestamp;P1;durP1;ratioP1;P2;durP2;ratioP2
71637;SDS011;59485;43.542;-5.676;2022-07-22T00:01:19;9.83;;;4.83;;
71637;SDS011;59485;43.542;-5.676;2022-07-22T00:03:45;12.50;;;5.10;;
71637;SDS011;59485;43.542;-5.676;2022-07-22T00:06:11;10.87;;;4.80;;
71637;SDS011;59485;43.542;-5.676;2022-07-22T00:08:36;8.88;;;5.05;;
71637;SDS011;59485;43.542;-5.676;2022-07-22T00:11:03;9.80;;;4.97;;
71637;SDS011;59485;43.542;-5.676;2022-07-22T00:13:29;10.23;;;4.93;;
71637;SDS011;59485;43.542;-5.676;2022-07-22T00:15:54;14.52;;;4.97;;
71637;SDS011;59485;43.542;-5.676;2022-07-22T00:18:20;11.97;;;5.40;;
71637;SDS011;59485;43.542;-5.676;2022-07-22T00:20:45;10.47;;;5.70;;
71637;SDS011;59485;43.542;-5.676;2022-07-22T00:23:11;11.73;;;4.90;;
71637;SDS011;59485;43.542;-5.676;2022-07-22T00:25:37;12.98;;;5.50;;
71637;SDS011;59485;43.542;-5.676;2022-07-22T00:28:02;15.18;;;5.95;;
71637;SDS011;59485;43.542;-5.676;2022-07-22T00:30:28;19.23;;;6.37;;
71637;SDS011;59485;43.542;-5.676;2022-07-22T00:32:54;16.20;;;6.47;;
71637;SDS011;59485;43.542;-5.676;2022-07-22T00:35:19;16.67;;;6.15;;
71637;SDS011;59485;43.542;-5.676;2022-07-22T00:37:45;19.03;;;7.00;;
71637;SDS011;59485;43.542;-5.676;2022-07-22T00:40:11;16.95;;;7.10;;
71637;SDS011;59485;43.542;-5.676;2022-07-22T00:42:37;16.00;;;7.13;;
71637;SDS011;59485;43.542;-5.676;2022-07-22T00:45:02;13.77;;;6.20;;
71637;SDS011;59485;43.542;-5.676;2022-07-22T00:47:28;20.33;;;7.30;;
71637;SDS011;59485;43.542;-5.676;2022-07-22T00:49:54;13.10;;;7.40;;
71637;SDS011;59485;43.542;-5.676;2022-07-22T00:52:19;14.73;;;7.13;;
71637;SDS011;59485;43.542;-5.676;2022-07-22T00:54:46;12.80;;;7.03;;
71637;SDS011;59485;43.542;-5.676;2022-07-22T00:57:12;14.88;;;7.82;;
71637;SDS011;59485;43.542;-5.676;2022-07-22T00:59:37;17.80;;;7.33;;
71637;SDS011;59485;43.542;-5.676;2022-07-22T01:02:03;17.97;;;7.77;;
71637;SDS011;59485;43.542;-5.676;2022-07-22T01:04:29;15.38;;;7.65;;
71637;SDS011;59485;43.542;-5.676;2022-07-22T01:06:54;14.10;;;7.37;;
71637;SDS011;59485;43.542;-5.676;2022-07-22T01:09:20;16.67;;;8.88;;
71637;SDS011;59485;43.542;-5.676;2022-07-22T01:11:46;14.73;;;8.00;;
71637;SDS011;59485;43.542;-5.676;2022-07-22T01:14:11;15.25;;;7.20;;
71637;SDS011;59485;43.542;-5.676;2022-07-22T01:16:37;15.60;;;7.30;;
71637;SDS011;59485;43.542;-5.676;2022-07-22T01:19:03;13.27;;;7.17;;
71637;SDS011;59485;43.542;-5.676;2022-07-22T01:21:29;17.63;;;7.80;;
71637;SDS011;59485;43.542;-5.676;2022-07-22T01:23:55;15.07;;;7.88;;
71637;SDS011;59485;43.542;-5.676;2022-07-22T01:26:20;15.50;;;6.87;;
71637;SDS011;59485;43.542;-5.676;2022-07-22T01:28:46;12.27;;;6.90;;
71637;SDS011;59485;43.542;-5.676;2022-07-22T01:31:11;13.93;;;6.40;;
71637;SDS011;59485;43.542;-5.676;2022-07-22T01:33:37;17.73;;;8.20;;
71637;SDS011;59485;43.542;-5.676;2022-07-22T01:36:03;19.45;;;8.02;;
71637;SDS011;59485;43.542;-5.676;2022-07-22T01:38:30;12.68;;;7.65;;
71637;SDS011;59485;43.542;-5.676;2022-07-22T01:40:55;14.70;;;6.70;;
71637;SDS011;59485;43.542;-5.676;2022-07-22T01:43:21;17.57;;;7.67;;
71637;SDS011;59485;43.542;-5.676;2022-07-22T01:45:48;13.45;;;6.80;;
71637;SDS011;59485;43.542;-5.676;2022-07-22T01:48:15;14.60;;;7.93;;
71637;SDS011;59485;43.542;-5.676;2022-07-22T01:50:40;11.00;;;6.40;;
71637;SDS011;59485;43.542;-5.676;2022-07-22T01:53:06;11.68;;;6.72;;
71637;SDS011;59485;43.542;-5.676;2022-07-22T01:55:32;15.15;;;8.00;;
71637;SDS011;59485;43.542;-5.676;2022-07-22T01:57:58;12.90;;;6.83;;
71637;SDS011;59485;43.542;-5.676;2022-07-22T02:00:24;14.40;;;6.95;;
71637;SDS011;59485;43.542;-5.676;2022-07-22T02:02:50;12.68;;;7.53;;
71637;SDS011;59485;43.542;-5.676;2022-07-22T02:05:15;14.80;;;8.90;;
71637;SDS011;59485;43.542;-5.676;2022-07-22T02:07:41;16.70;;;7.60;;
71637;SDS011;59485;43.542;-5.676;2022-07-22T02:10:06;16.42;;;7.82;;
71637;SDS011;59485;43.542;-5.676;2022-07-22T02:12:32;16.92;;;7.72;;
71637;SDS011;59485;43.542;-5.676;2022-07-22T02:14:58;10.37;;;7.20;;
71637;SDS011;59485;43.542;-5.676;2022-07-22T02:17:25;13.95;;;7.25;;
71637;SDS011;59485;43.542;-5.676;2022-07-22T02:19:51;13.77;;;7.37;;
71637;SDS011;59485;43.542;-5.676;2022-07-22T02:22:16;15.05;;;7.63;;
71637;SDS011;59485;43.542;-5.676;2022-07-22T02:24:42;12.37;;;6.70;;
71637;SDS011;59485;43.542;-5.676;2022-07-22T02:27:07;12.90;;;7.13;;
71637;SDS011;59485;43.542;-5.676;2022-07-22T02:29:33;17.02;;;7.80;;
71637;SDS011;59485;43.542;-5.676;2022-07-22T02:31:59;14.13;;;8.20;;
71637;SDS011;59485;43.542;-5.676;2022-07-22T02:34:25;15.48;;;7.15;;
71637;SDS011;59485;43.542;-5.676;2022-07-22T02:36:51;17.50;;;7.38;;
71637;SDS011;59485;43.542;-5.676;2022-07-22T02:39:16;12.70;;;7.90;;
71637;SDS011;59485;43.542;-5.676;2022-07-22T02:41:43;14.25;;;7.60;;
71637;SDS011;59485;43.542;-5.676;2022-07-22T02:44:08;13.15;;;8.25;;
71637;SDS011;59485;43.542;-5.676;2022-07-22T02:46:34;14.83;;;8.73;;
71637;SDS011;59485;43.542;-5.676;2022-07-22T02:49:00;15.63;;;8.73;;
71637;SDS011;59485;43.542;-5.676;2022-07-22T02:51:26;14.02;;;7.50;;
71637;SDS011;59485;43.542;-5.676;2022-07-22T02:53:51;15.53;;;8.93;;
71637;SDS011;59485;43.542;-5.676;2022-07-22T02:56:17;13.83;;;7.50;;
71637;SDS011;59485;43.542;-5.676;2022-07-22T02:58:44;18.85;;;8.20;;
71637;SDS011;59485;43.542;-5.676;2022-07-22T03:01:11;19.10;;;7.90;;
71637;SDS011;59485;43.542;-5.676;2022-07-22T03:03:37;14.00;;;7.65;;
71637;SDS011;59485;43.542;-5.676;2022-07-22T03:06:03;18.10;;;8.83;;
71637;SDS011;59485;43.542;-5.676;2022-07-22T03:08:29;15.15;;;8.07;;
71637;SDS011;59485;43.542;-5.676;2022-07-22T03:10:55;16.48;;;8.45;;
71637;SDS011;59485;43.542;-5.676;2022-07-22T03:13:20;12.57;;;7.43;;
71637;SDS011;59485;43.542;-5.676;2022-07-22T03:15:46;13.97;;;7.80;;
71637;SDS011;59485;43.542;-5.676;2022-07-22T03:18:12;12.45;;;8.63;;
71637;SDS011;59485;43.542;-5.676;2022-07-22T03:20:37;19.23;;;9.13;;
71637;SDS011;59485;43.542;-5.676;2022-07-22T03:23:03;17.08;;;8.55;;
71637;SDS011;59485;43.542;-5.676;2022-07-22T03:25:28;12.17;;;4.93;;
71637;SDS011;59485;43.542;-5.676;2022-07-22T03:27:56;12.57;;;4.93;;
71637;SDS011;59485;43.542;-5.676;2022-07-22T03:30:22;15.98;;;4.88;;
71637;SDS011;59485;43.542;-5.676;2022-07-22T03:32:47;16.13;;;5.53;;
71637;SDS011;59485;43.542;-5.676;2022-07-22T03:35:13;17.90;;;4.87;;
71637;SDS011;59485;43.542;-5.676;2022-07-22T03:37:39;23.17;;;5.50;;
71637;SDS011;59485;43.542;-5.676;2022-07-22T03:40:05;17.95;;;5.68;;
71637;SDS011;59485;43.542;-5.676;2022-07-22T03:42:31;12.63;;;5.27;;
71637;SDS011;59485;43.542;-5.676;2022-07-22T03:44:56;13.43;;;5.28;;
71637;SDS011;59485;43.542;-5.676;2022-07-22T03:47:22;16.23;;;5.80;;
71637;SDS011;59485;43.542;-5.676;2022-07-22T03:49:49;16.48;;;5.72;;
71637;SDS011;59485;43.542;-5.676;2022-07-22T03:52:15;16.10;;;5.95;;
71637;SDS011;59485;43.542;-5.676;2022-07-22T03:54:41;17.33;;;5.50;;
71637;SDS011;59485;43.542;-5.676;2022-07-22T03:57:07;20.23;;;6.10;;
71637;SDS011;59485;43.542;-5.676;2022-07-22T03:59:33;20.13;;;6.13;;
71637;SDS011;59485;43.542;-5.676;2022-07-22T04:01:59;13.32;;;5.22;;
71637;SDS011;59485;43.542;-5.676;2022-07-22T04:04:25;16.00;;;5.93;;
71637;SDS011;59485;43.542;-5.676;2022-07-22T04:06:50;22.63;;;5.73;;
71637;SDS011;59485;43.542;-5.676;2022-07-22T04:09:19;22.05;;;6.68;;
71637;SDS011;59485;43.542;-5.676;2022-07-22T04:11:45;17.33;;;5.80;;
71637;SDS011;59485;43.542;-5.676;2022-07-22T04:14:10;14.70;;;6.33;;
71637;SDS011;59485;43.542;-5.676;2022-07-22T04:16:36;14.15;;;5.97;;
71637;SDS011;59485;43.542;-5.676;2022-07-22T04:19:04;17.23;;;6.17;;
71637;SDS011;59485;43.542;-5.676;2022-07-22T04:21:30;13.82;;;5.80;;
71637;SDS011;59485;43.542;-5.676;2022-07-22T04:23:55;13.45;;;6.15;;
71637;SDS011;59485;43.542;-5.676;2022-07-22T04:26:21;23.50;;;6.17;;
71637;SDS011;59485;43.542;-5.676;2022-07-22T04:28:47;16.42;;;6.00;;
71637;SDS011;59485;43.542;-5.676;2022-07-22T04:31:13;14.10;;;6.28;;
71637;SDS011;59485;43.542;-5.676;2022-07-22T04:33:38;14.60;;;6.70;;
71637;SDS011;59485;43.542;-5.676;2022-07-22T04:36:04;14.93;;;6.77;;
71637;SDS011;59485;43.542;-5.676;2022-07-22T04:38:30;13.13;;;6.18;;
71637;SDS011;59485;43.542;-5.676;2022-07-22T04:40:55;17.70;;;6.33;;
71637;SDS011;59485;43.542;-5.676;2022-07-22T04:43:22;18.98;;;6.75;;
71637;SDS011;59485;43.542;-5.676;2022-07-22T04:45:48;21.23;;;6.50;;
71637;SDS011;59485;43.542;-5.676;2022-07-22T04:48:13;16.20;;;6.53;;
71637;SDS011;59485;43.542;-5.676;2022-07-22T04:50:39;13.47;;;6.03;;
71637;SDS011;59485;43.542;-5.676;2022-07-22T04:53:05;18.40;;;6.90;;
71637;SDS011;59485;43.542;-5.676;2022-07-22T04:55:30;14.93;;;5.97;;
71637;SDS011;59485;43.542;-5.676;2022-07-22T05:00:28;15.15;;;5.60;;
71637;SDS011;59485;43.542;-5.676;2022-07-22T05:03:06;16.73;;;5.57;;
71637;SDS011;59485;43.542;-5.676;2022-07-22T05:05:35;13.88;;;6.35;;
71637;SDS011;59485;43.542;-5.676;2022-07-22T05:10:51;15.20;;;5.50;;
71637;SDS011;59485;43.542;-5.676;2022-07-22T05:13:16;12.80;;;5.43;;
71637;SDS011;59485;43.542;-5.676;2022-07-22T05:15:42;8.23;;;5.13;;
71637;SDS011;59485;43.542;-5.676;2022-07-22T05:18:08;15.43;;;5.80;;
71637;SDS011;59485;43.542;-5.676;2022-07-22T05:20:33;17.03;;;5.40;;
71637;SDS011;59485;43.542;-5.676;2022-07-22T05:22:59;10.95;;;4.10;;
71637;SDS011;59485;43.542;-5.676;2022-07-22T05:25:24;14.63;;;4.70;;
71637;SDS011;59485;43.542;-5.676;2022-07-22T05:27:50;13.97;;;4.67;;
71637;SDS011;59485;43.542;-5.676;2022-07-22T05:30:17;15.55;;;4.93;;
71637;SDS011;59485;43.542;-5.676;2022-07-22T05:32:43;10.80;;;4.22;;
71637;SDS011;59485;43.542;-5.676;2022-07-22T05:35:08;15.10;;;4.63;;
71637;SDS011;59485;43.542;-5.676;2022-07-22T05:37:34;10.00;;;3.80;;
71637;SDS011;59485;43.542;-5.676;2022-07-22T05:39:59;10.90;;;3.93;;
71637;SDS011;59485;43.542;-5.676;2022-07-22T05:42:24;10.17;;;4.40;;
71637;SDS011;59485;43.542;-5.676;2022-07-22T05:44:50;7.93;;;4.00;;
71637;SDS011;59485;43.542;-5.676;2022-07-22T05:47:15;8.33;;;4.23;;
71637;SDS011;59485;43.542;-5.676;2022-07-22T05:49:41;10.88;;;3.60;;
71637;SDS011;59485;43.542;-5.676;2022-07-22T05:52:08;9.88;;;2.75;;
71637;SDS011;59485;43.542;-5.676;2022-07-22T05:54:33;9.90;;;3.20;;
71637;SDS011;59485;43.542;-5.676;2022-07-22T05:56:59;9.73;;;4.50;;
71637;SDS011;59485;43.542;-5.676;2022-07-22T05:59:25;7.47;;;3.47;;
71637;SDS011;59485;43.542;-5.676;2022-07-22T06:01:51;9.63;;;2.97;;
71637;SDS011;59485;43.542;-5.676;2022-07-22T06:04:17;9.32;;;3.10;;
71637;SDS011;59485;43.542;-5.676;2022-07-22T06:06:43;14.73;;;3.80;;
71637;SDS011;59485;43.542;-5.676;2022-07-22T06:09:08;11.18;;;3.33;;
71637;SDS011;59485;43.542;-5.676;2022-07-22T06:11:34;12.17;;;4.07;;
71637;SDS011;59485;43.542;-5.676;2022-07-22T06:13:59;8.80;;;3.88;;
71637;SDS011;59485;43.542;-5.676;2022-07-22T06:16:25;6.67;;;2.77;;
71637;SDS011;59485;43.542;-5.676;2022-07-22T06:18:50;9.20;;;2.70;;
71637;SDS011;59485;43.542;-5.676;2022-07-22T06:21:16;8.73;;;3.35;;
71637;SDS011;59485;43.542;-5.676;2022-07-22T06:23:41;7.50;;;2.70;;
71637;SDS011;59485;43.542;-5.676;2022-07-22T06:26:07;9.30;;;3.17;;
71637;SDS011;59485;43.542;-5.676;2022-07-22T06:28:34;8.65;;;3.10;;
71637;SDS011;59485;43.542;-5.676;2022-07-22T06:30:59;8.30;;;2.90;;
71637;SDS011;59485;43.542;-5.676;2022-07-22T06:33:25;6.68;;;2.15;;
71637;SDS011;59485;43.542;-5.676;2022-07-22T06:35:50;7.97;;;2.20;;
71637;SDS011;59485;43.542;-5.676;2022-07-22T06:38:16;9.93;;;2.33;;
71637;SDS011;59485;43.542;-5.676;2022-07-22T06:40:41;7.63;;;2.20;;
71637;SDS011;59485;43.542;-5.676;2022-07-22T06:43:07;8.17;;;2.47;;
71637;SDS011;59485;43.542;-5.676;2022-07-22T06:45:32;5.77;;;2.20;;
71637;SDS011;59485;43.542;-5.676;2022-07-22T06:47:58;7.00;;;2.50;;
71637;SDS011;59485;43.542;-5.676;2022-07-22T06:50:23;6.70;;;2.50;;
71637;SDS011;59485;43.542;-5.676;2022-07-22T06:52:49;6.60;;;2.23;;
71637;SDS011;59485;43.542;-5.676;2022-07-22T06:55:15;6.20;;;2.08;;
71637;SDS011;59485;43.542;-5.676;2022-07-22T06:57:41;9.33;;;2.93;;
71637;SDS011;59485;43.542;-5.676;2022-07-22T07:00:06;5.77;;;2.60;;
71637;SDS011;59485;43.542;-5.676;2022-07-22T07:02:33;6.15;;;2.13;;
71637;SDS011;59485;43.542;-5.676;2022-07-22T07:04:59;8.93;;;2.30;;
71637;SDS011;59485;43.542;-5.676;2022-07-22T07:07:25;13.15;;;2.58;;
71637;SDS011;59485;43.542;-5.676;2022-07-22T07:09:50;7.57;;;2.23;;
71637;SDS011;59485;43.542;-5.676;2022-07-22T07:12:19;4.28;;;1.92;;
71637;SDS011;59485;43.542;-5.676;2022-07-22T07:14:45;4.82;;;2.10;;
71637;SDS011;59485;43.542;-5.676;2022-07-22T07:17:10;4.83;;;2.20;;
71637;SDS011;59485;43.542;-5.676;2022-07-22T07:19:36;6.50;;;2.27;;
71637;SDS011;59485;43.542;-5.676;2022-07-22T07:22:01;8.33;;;2.13;;
71637;SDS011;59485;43.542;-5.676;2022-07-22T07:24:27;8.93;;;3.30;;
71637;SDS011;59485;43.542;-5.676;2022-07-22T07:26:52;6.00;;;3.03;;
71637;SDS011;59485;43.542;-5.676;2022-07-22T07:29:17;7.83;;;3.17;;
71637;SDS011;59485;43.542;-5.676;2022-07-22T07:31:43;5.55;;;2.13;;
71637;SDS011;59485;43.542;-5.676;2022-07-22T07:34:08;10.57;;;3.23;;
71637;SDS011;59485;43.542;-5.676;2022-07-22T07:36:34;9.37;;;3.30;;
71637;SDS011;59485;43.542;-5.676;2022-07-22T07:38:59;6.97;;;2.72;;
71637;SDS011;59485;43.542;-5.676;2022-07-22T07:41:25;8.27;;;3.53;;
71637;SDS011;59485;43.542;-5.676;2022-07-22T07:43:50;9.00;;;2.93;;
71637;SDS011;59485;43.542;-5.676;2022-07-22T07:46:16;9.10;;;3.17;;
71637;SDS011;59485;43.542;-5.676;2022-07-22T07:48:42;6.87;;;3.67;;
71637;SDS011;59485;43.542;-5.676;2022-07-22T07:51:07;6.78;;;3.25;;
71637;SDS011;59485;43.542;-5.676;2022-07-22T07:53:33;9.67;;;3.50;;
71637;SDS011;59485;43.542;-5.676;2022-07-22T07:55:59;9.73;;;3.65;;
71637;SDS011;59485;43.542;-5.676;2022-07-22T07:58:24;9.77;;;3.50;;
71637;SDS011;59485;43.542;-5.676;2022-07-22T08:00:50;11.23;;;4.10;;
71637;SDS011;59485;43.542;-5.676;2022-07-22T08:03:15;6.50;;;3.37;;
71637;SDS011;59485;43.542;-5.676;2022-07-22T08:05:41;7.73;;;3.20;;
71637;SDS011;59485;43.542;-5.676;2022-07-22T08:08:07;9.27;;;3.63;;
71637;SDS011;59485;43.542;-5.676;2022-07-22T08:10:33;7.38;;;3.72;;
71637;SDS011;59485;43.542;-5.676;2022-07-22T08:12:59;9.63;;;2.97;;
71637;SDS011;59485;43.542;-5.676;2022-07-22T08:15:25;7.72;;;2.75;;
71637;SDS011;59485;43.542;-5.676;2022-07-22T08:17:52;8.80;;;2.80;;
71637;SDS011;59485;43.542;-5.676;2022-07-22T08:20:18;6.97;;;2.67;;
71637;SDS011;59485;43.542;-5.676;2022-07-22T08:22:43;8.00;;;3.20;;
71637;SDS011;59485;43.542;-5.676;2022-07-22T08:25:09;8.20;;;2.90;;
71637;SDS011;59485;43.542;-5.676;2022-07-22T08:27:35;6.50;;;3.20;;
71637;SDS011;59485;43.542;-5.676;2022-07-22T08:30:00;9.67;;;3.07;;
71637;SDS011;59485;43.542;-5.676;2022-07-22T08:32:29;8.88;;;3.42;;
71637;SDS011;59485;43.542;-5.676;2022-07-22T08:34:55;6.85;;;3.88;;
71637;SDS011;59485;43.542;-5.676;2022-07-22T08:37:21;7.23;;;3.80;;
71637;SDS011;59485;43.542;-5.676;2022-07-22T08:39:46;9.50;;;3.97;;
71637;SDS011;59485;43.542;-5.676;2022-07-22T08:42:12;6.87;;;4.27;;
71637;SDS011;59485;43.542;-5.676;2022-07-22T08:44:39;23.50;;;8.02;;
71637;SDS011;59485;43.542;-5.676;2022-07-22T08:47:04;9.35;;;4.13;;
71637;SDS011;59485;43.542;-5.676;2022-07-22T08:49:30;11.03;;;5.23;;
71637;SDS011;59485;43.542;-5.676;2022-07-22T08:51:56;11.37;;;4.87;;
71637;SDS011;59485;43.542;-5.676;2022-07-22T08:54:21;7.53;;;3.73;;
71637;SDS011;59485;43.542;-5.676;2022-07-22T08:56:47;9.00;;;4.17;;
71637;SDS011;59485;43.542;-5.676;2022-07-22T08:59:14;8.18;;;3.60;;
71637;SDS011;59485;43.542;-5.676;2022-07-22T09:04:32;7.67;;;4.03;;
71637;SDS011;59485;43.542;-5.676;2022-07-22T09:07:20;8.73;;;3.55;;
71637;SDS011;59485;43.542;-5.676;2022-07-22T09:09:48;8.55;;;4.05;;
71637;SDS011;59485;43.542;-5.676;2022-07-22T09:12:13;9.67;;;3.87;;
71637;SDS011;59485;43.542;-5.676;2022-07-22T09:14:45;8.40;;;4.43;;
71637;SDS011;59485;43.542;-5.676;2022-07-22T09:17:22;9.80;;;4.63;;
71637;SDS011;59485;43.542;-5.676;2022-07-22T09:20:16;10.95;;;4.72;;
71637;SDS011;59485;43.542;-5.676;2022-07-22T09:22:44;10.93;;;5.25;;
71637;SDS011;59485;43.542;-5.676;2022-07-22T09:27:46;10.65;;;4.50;;
71637;SDS011;59485;43.542;-5.676;2022-07-22T09:30:14;11.97;;;4.63;;
71637;SDS011;59485;43.542;-5.676;2022-07-22T09:32:42;13.73;;;5.75;;
71637;SDS011;59485;43.542;-5.676;2022-07-22T09:35:09;8.88;;;4.15;;
71637;SDS011;59485;43.542;-5.676;2022-07-22T09:37:36;10.15;;;4.75;;
71637;SDS011;59485;43.542;-5.676;2022-07-22T09:40:26;8.50;;;4.50;;
71637;SDS011;59485;43.542;-5.676;2022-07-22T09:42:56;9.17;;;5.00;;
71637;SDS011;59485;43.542;-5.676;2022-07-22T09:45:23;10.65;;;4.93;;
71637;SDS011;59485;43.542;-5.676;2022-07-22T09:47:51;8.75;;;5.50;;
71637;SDS011;59485;43.542;-5.676;2022-07-22T09:50:28;9.45;;;4.80;;
71637;SDS011;59485;43.542;-5.676;2022-07-22T09:52:54;8.90;;;5.10;;
71637;SDS011;59485;43.542;-5.676;2022-07-22T09:55:21;11.80;;;5.33;;
71637;SDS011;59485;43.542;-5.676;2022-07-22T09:57:49;11.27;;;5.50;;
71637;SDS011;59485;43.542;-5.676;2022-07-22T10:00:17;9.13;;;4.72;;
71637;SDS011;59485;43.542;-5.676;2022-07-22T10:02:55;9.27;;;4.40;;
71637;SDS011;59485;43.542;-5.676;2022-07-22T10:05:24;8.95;;;5.45;;
71637;SDS011;59485;43.542;-5.676;2022-07-22T10:07:54;8.47;;;4.67;;
71637;SDS011;59485;43.542;-5.676;2022-07-22T10:10:21;11.23;;;5.53;;
71637;SDS011;59485;43.542;-5.676;2022-07-22T10:12:49;12.57;;;6.05;;
71637;SDS011;59485;43.542;-5.676;2022-07-22T10:15:17;12.43;;;6.15;;
71637;SDS011;59485;43.542;-5.676;2022-07-22T10:17:44;11.75;;;6.07;;
71637;SDS011;59485;43.542;-5.676;2022-07-22T10:20:19;16.13;;;6.50;;
71637;SDS011;59485;43.542;-5.676;2022-07-22T10:22:51;12.55;;;6.13;;
71637;SDS011;59485;43.542;-5.676;2022-07-22T10:25:22;12.27;;;6.20;;
71637;SDS011;59485;43.542;-5.676;2022-07-22T10:27:56;14.48;;;7.00;;
71637;SDS011;59485;43.542;-5.676;2022-07-22T10:30:25;11.98;;;5.63;;
71637;SDS011;59485;43.542;-5.676;2022-07-22T10:33:05;10.60;;;5.90;;
71637;SDS011;59485;43.542;-5.676;2022-07-22T10:35:34;11.18;;;6.15;;
71637;SDS011;59485;43.542;-5.676;2022-07-22T10:38:03;12.18;;;5.55;;
71637;SDS011;59485;43.542;-5.676;2022-07-22T10:40:31;11.88;;;6.15;;
71637;SDS011;59485;43.542;-5.676;2022-07-22T10:43:13;9.40;;;5.90;;
71637;SDS011;59485;43.542;-5.676;2022-07-22T10:45:42;11.07;;;5.00;;
71637;SDS011;59485;43.542;-5.676;2022-07-22T10:48:22;9.40;;;5.15;;
71637;SDS011;59485;43.542;-5.676;2022-07-22T10:50:51;9.55;;;4.53;;
71637;SDS011;59485;43.542;-5.676;2022-07-22T10:58:46;8.07;;;4.87;;
71637;SDS011;59485;43.542;-5.676;2022-07-22T11:01:17;10.77;;;5.03;;
71637;SDS011;59485;43.542;-5.676;2022-07-22T11:03:45;10.43;;;4.47;;
71637;SDS011;59485;43.542;-5.676;2022-07-22T11:06:12;10.93;;;4.90;;
71637;SDS011;59485;43.542;-5.676;2022-07-22T11:08:49;12.43;;;5.38;;
71637;SDS011;59485;43.542;-5.676;2022-07-22T11:11:17;8.67;;;4.80;;
71637;SDS011;59485;43.542;-5.676;2022-07-22T11:13:43;11.20;;;5.57;;
71637;SDS011;59485;43.542;-5.676;2022-07-22T11:16:22;8.60;;;5.20;;
71637;SDS011;59485;43.542;-5.676;2022-07-22T11:21:20;10.00;;;5.68;;
71637;SDS011;59485;43.542;-5.676;2022-07-22T11:23:48;13.00;;;5.23;;
71637;SDS011;59485;43.542;-5.676;2022-07-22T11:26:16;10.73;;;4.78;;
71637;SDS011;59485;43.542;-5.676;2022-07-22T11:28:43;9.45;;;4.72;;
71637;SDS011;59485;43.542;-5.676;2022-07-22T11:31:13;8.23;;;4.03;;
71637;SDS011;59485;43.542;-5.676;2022-07-22T11:33:40;8.98;;;3.60;;
71637;SDS011;59485;43.542;-5.676;2022-07-22T11:36:06;6.50;;;3.63;;
71637;SDS011;59485;43.542;-5.676;2022-07-22T11:38:48;11.20;;;3.88;;
71637;SDS011;59485;43.542;-5.676;2022-07-22T11:41:18;8.60;;;3.35;;
71637;SDS011;59485;43.542;-5.676;2022-07-22T11:43:48;9.93;;;2.47;;
71637;SDS011;59485;43.542;-5.676;2022-07-22T11:46:15;7.57;;;2.90;;
71637;SDS011;59485;43.542;-5.676;2022-07-22T11:48:42;4.57;;;1.98;;
71637;SDS011;59485;43.542;-5.676;2022-07-22T11:51:11;6.32;;;1.73;;
71637;SDS011;59485;43.542;-5.676;2022-07-22T11:53:39;7.15;;;1.75;;
71637;SDS011;59485;43.542;-5.676;2022-07-22T11:56:06;5.53;;;1.70;;
71637;SDS011;59485;43.542;-5.676;2022-07-22T11:58:42;6.68;;;2.13;;
71637;SDS011;59485;43.542;-5.676;2022-07-22T12:01:10;6.65;;;2.00;;
71637;SDS011;59485;43.542;-5.676;2022-07-22T12:03:39;5.63;;;1.52;;
71637;SDS011;59485;43.542;-5.676;2022-07-22T12:06:07;7.72;;;1.75;;
71637;SDS011;59485;43.542;-5.676;2022-07-22T12:08:38;6.10;;;1.80;;
71637;SDS011;59485;43.542;-5.676;2022-07-22T12:11:09;5.72;;;1.88;;
71637;SDS011;59485;43.542;-5.676;2022-07-22T12:13:38;5.25;;;1.60;;
71637;SDS011;59485;43.542;-5.676;2022-07-22T12:16:16;6.43;;;1.58;;
71637;SDS011;59485;43.542;-5.676;2022-07-22T12:18:42;6.40;;;1.48;;
71637;SDS011;59485;43.542;-5.676;2022-07-22T12:21:07;5.40;;;1.43;;
71637;SDS011;59485;43.542;-5.676;2022-07-22T12:23:33;4.93;;;1.60;;
71637;SDS011;59485;43.542;-5.676;2022-07-22T12:25:59;6.40;;;1.40;;
71637;SDS011;59485;43.542;-5.676;2022-07-22T12:28:26;8.10;;;1.37;;
71637;SDS011;59485;43.542;-5.676;2022-07-22T12:30:53;4.43;;;1.40;;
71637;SDS011;59485;43.542;-5.676;2022-07-22T12:33:20;4.90;;;1.75;;
71637;SDS011;59485;43.542;-5.676;2022-07-22T12:38:24;5.68;;;1.80;;
71637;SDS011;59485;43.542;-5.676;2022-07-22T12:40:50;6.10;;;2.27;;
71637;SDS011;59485;43.542;-5.676;2022-07-22T12:43:15;5.65;;;1.67;;
71637;SDS011;59485;43.542;-5.676;2022-07-22T12:45:42;8.43;;;2.43;;
71637;SDS011;59485;43.542;-5.676;2022-07-22T12:48:09;7.25;;;2.38;;
71637;SDS011;59485;43.542;-5.676;2022-07-22T12:50:39;5.78;;;1.75;;
71637;SDS011;59485;43.542;-5.676;2022-07-22T12:53:06;6.00;;;1.55;;
71637;SDS011;59485;43.542;-5.676;2022-07-22T12:55:44;4.45;;;2.10;;
71637;SDS011;59485;43.542;-5.676;2022-07-22T12:58:13;6.33;;;1.70;;
71637;SDS011;59485;43.542;-5.676;2022-07-22T13:00:41;4.60;;;1.35;;
71637;SDS011;59485;43.542;-5.676;2022-07-22T13:03:08;5.45;;;1.90;;
71637;SDS011;59485;43.542;-5.676;2022-07-22T13:05:34;11.70;;;2.35;;
71637;SDS011;59485;43.542;-5.676;2022-07-22T13:08:02;5.57;;;1.63;;
71637;SDS011;59485;43.542;-5.676;2022-07-22T13:10:28;9.55;;;1.88;;
71637;SDS011;59485;43.542;-5.676;2022-07-22T13:12:54;8.15;;;2.10;;
71637;SDS011;59485;43.542;-5.676;2022-07-22T13:15:20;7.20;;;1.75;;
71637;SDS011;59485;43.542;-5.676;2022-07-22T13:17:47;4.63;;;1.57;;
71637;SDS011;59485;43.542;-5.676;2022-07-22T13:20:14;7.95;;;2.08;;
71637;SDS011;59485;43.542;-5.676;2022-07-22T13:22:42;5.43;;;1.75;;
71637;SDS011;59485;43.542;-5.676;2022-07-22T13:25:09;6.97;;;1.73;;
71637;SDS011;59485;43.542;-5.676;2022-07-22T13:27:35;7.13;;;3.08;;
71637;SDS011;59485;43.542;-5.676;2022-07-22T13:30:03;7.90;;;2.90;;
71637;SDS011;59485;43.542;-5.676;2022-07-22T13:32:29;7.30;;;3.10;;
71637;SDS011;59485;43.542;-5.676;2022-07-22T13:34:55;8.80;;;2.72;;
71637;SDS011;59485;43.542;-5.676;2022-07-22T13:37:21;12.33;;;2.77;;
71637;SDS011;59485;43.542;-5.676;2022-07-22T13:39:47;5.53;;;2.20;;
71637;SDS011;59485;43.542;-5.676;2022-07-22T13:42:14;8.60;;;2.72;;
71637;SDS011;59485;43.542;-5.676;2022-07-22T13:44:47;8.50;;;2.15;;
71637;SDS011;59485;43.542;-5.676;2022-07-22T13:47:13;8.03;;;2.40;;
71637;SDS011;59485;43.542;-5.676;2022-07-22T13:49:39;7.13;;;2.22;;
71637;SDS011;59485;43.542;-5.676;2022-07-22T13:52:05;6.68;;;2.58;;
71637;SDS011;59485;43.542;-5.676;2022-07-22T13:54:32;6.07;;;2.70;;
71637;SDS011;59485;43.542;-5.676;2022-07-22T13:56:58;8.60;;;2.53;;
71637;SDS011;59485;43.542;-5.676;2022-07-22T13:59:25;5.77;;;2.50;;
71637;SDS011;59485;43.542;-5.676;2022-07-22T14:01:50;7.45;;;2.53;;
71637;SDS011;59485;43.542;-5.676;2022-07-22T14:04:17;8.25;;;2.60;;
71637;SDS011;59485;43.542;-5.676;2022-07-22T14:06:42;7.10;;;2.10;;
71637;SDS011;59485;43.542;-5.676;2022-07-22T14:09:08;6.07;;;2.72;;
71637;SDS011;59485;43.542;-5.676;2022-07-22T14:11:33;4.97;;;1.90;;
71637;SDS011;59485;43.542;-5.676;2022-07-22T14:13:59;9.70;;;2.33;;
71637;SDS011;59485;43.542;-5.676;2022-07-22T14:16:25;8.85;;;1.60;;
71637;SDS011;59485;43.542;-5.676;2022-07-22T14:19:07;8.50;;;1.90;;
71637;SDS011;59485;43.542;-5.676;2022-07-22T14:21:33;5.65;;;1.90;;
71637;SDS011;59485;43.542;-5.676;2022-07-22T14:24:00;8.68;;;2.20;;
71637;SDS011;59485;43.542;-5.676;2022-07-22T14:26:26;7.03;;;2.33;;
71637;SDS011;59485;43.542;-5.676;2022-07-22T14:28:52;9.57;;;2.72;;
71637;SDS011;59485;43.542;-5.676;2022-07-22T14:31:18;6.63;;;1.90;;
71637;SDS011;59485;43.542;-5.676;2022-07-22T14:33:44;6.13;;;1.70;;
71637;SDS011;59485;43.542;-5.676;2022-07-22T14:36:10;7.88;;;2.40;;
71637;SDS011;59485;43.542;-5.676;2022-07-22T14:38:35;8.53;;;2.87;;
71637;SDS011;59485;43.542;-5.676;2022-07-22T14:41:01;7.93;;;2.78;;
71637;SDS011;59485;43.542;-5.676;2022-07-22T14:43:27;5.87;;;2.53;;
71637;SDS011;59485;43.542;-5.676;2022-07-22T14:45:52;11.15;;;2.53;;
71637;SDS011;59485;43.542;-5.676;2022-07-22T14:48:18;6.20;;;2.60;;